createdAt,value
2023-07-03T00:09:14.952Z,100799.00
2023-07-03T00:11:41.734Z,100814.09
2023-07-03T00:14:08.328Z,100809.03
2023-07-03T00:16:34.891Z,100805.56
2023-07-03T00:19:01.755Z,100822.69
2023-07-03T00:21:28.587Z,100822.41
2023-07-03T00:23:55.522Z,100828.91
2023-07-03T00:26:22.192Z,100816.47
2023-07-03T00:28:49.333Z,100821.91
2023-07-03T00:31:16.247Z,100814.88
2023-07-03T00:33:43.024Z,100811.66
2023-07-03T00:36:11.144Z,100814.44
2023-07-03T00:38:38.113Z,100817.97
2023-07-03T00:41:05.509Z,100812.13
2023-07-03T00:43:34.289Z,100812.94
2023-07-03T00:46:02.353Z,100800.38
2023-07-03T00:48:32.464Z,100806.59
2023-07-03T00:50:59.717Z,100801.53
2023-07-03T00:53:26.592Z,100804.50
2023-07-03T00:55:53.445Z,100806.72
2023-07-03T00:58:20.854Z,100802.31
2023-07-03T01:01:01.209Z,100804.16
2023-07-03T01:03:41.785Z,100811.97
2023-07-03T01:06:20.642Z,100794.50
2023-07-03T01:08:56.082Z,100805.19
2023-07-03T01:11:23.391Z,100798.41
2023-07-03T01:13:53.315Z,100804.84
2023-07-03T01:16:21.286Z,100807.47
2023-07-03T01:18:50.506Z,100805.88
2023-07-03T01:21:23.821Z,100809.47
2023-07-03T01:24:06.626Z,100808.41
2023-07-03T01:26:35.649Z,100798.75
2023-07-03T01:29:03.481Z,100807.03
2023-07-03T01:31:32.979Z,100802.09
2023-07-03T01:34:01.689Z,100791.75
2023-07-03T01:36:29.676Z,100796.25
2023-07-03T01:39:02.337Z,100798.16
2023-07-03T01:41:31.036Z,100785.78
2023-07-03T01:43:58.874Z,100789.22
2023-07-03T01:46:25.878Z,100795.41
2023-07-03T01:48:52.955Z,100791.72
2023-07-03T01:51:36.015Z,100794.25
2023-07-03T01:54:15.217Z,100787.34
2023-07-03T01:56:45.403Z,100788.72
2023-07-03T01:59:14.750Z,100791.13
2023-07-03T02:01:53.949Z,100795.72
2023-07-03T02:04:27.227Z,100795.06
2023-07-03T02:06:56.499Z,100789.06
2023-07-03T02:09:26.632Z,100793.41
2023-07-03T02:11:57.323Z,100782.78
2023-07-03T02:14:25.337Z,100787.22
2023-07-03T02:16:55.997Z,100790.09
2023-07-03T02:19:30.049Z,100785.78
2023-07-03T02:21:57.618Z,100776.13
2023-07-03T02:24:24.374Z,100787.69
2023-07-03T02:26:52.293Z,100782.97
2023-07-03T02:29:19.699Z,100773.44
2023-07-03T02:31:47.072Z,100779.59
2023-07-03T02:34:16.113Z,100775.78
2023-07-03T02:36:43.463Z,100771.59
2023-07-03T02:39:10.698Z,100771.13
2023-07-03T02:41:37.850Z,100766.56
2023-07-03T02:44:05.100Z,100758.19
2023-07-03T02:46:37.200Z,100775.63
2023-07-03T02:49:06.533Z,100767.22
2023-07-03T02:51:35.595Z,100768.91
2023-07-03T02:54:06.854Z,100766.84
2023-07-03T02:56:33.897Z,100764.88
2023-07-03T02:59:01.323Z,100763.06
2023-07-03T03:01:32.464Z,100766.84
2023-07-03T03:04:00.885Z,100758.88
2023-07-03T03:06:28.569Z,100767.44
2023-07-03T03:08:55.482Z,100758.50
2023-07-03T03:11:22.633Z,100761.28
2023-07-03T03:13:53.491Z,100760.34
2023-07-03T03:16:20.388Z,100753.72
2023-07-03T03:18:48.668Z,100755.00
2023-07-03T03:21:16.595Z,100753.50
2023-07-03T03:23:46.047Z,100748.88
2023-07-03T03:26:13.149Z,100755.13
2023-07-03T03:28:40.068Z,100762.72
2023-07-03T03:31:07.913Z,100744.69
2023-07-03T03:33:39.616Z,100760.13
2023-07-03T03:36:06.614Z,100755.75
2023-07-03T03:38:33.335Z,100761.19
2023-07-03T03:41:06.868Z,100758.19
2023-07-03T03:43:38.996Z,100765.44
2023-07-03T03:46:06.737Z,100757.91
2023-07-03T03:48:36.668Z,100760.69
2023-07-03T03:51:05.124Z,100765.06
2023-07-03T03:53:34.229Z,100760.22
2023-07-03T03:56:01.141Z,100760.19
2023-07-03T03:58:30.530Z,100758.88
2023-07-03T04:00:57.709Z,100758.81
2023-07-03T04:03:24.395Z,100757.63
2023-07-03T04:05:51.365Z,100759.56
2023-07-03T04:08:18.330Z,100763.41
2023-07-03T04:10:45.189Z,100754.91
2023-07-03T04:13:12.768Z,100758.88
2023-07-03T04:15:57.757Z,100757.84
2023-07-03T04:18:25.352Z,100758.94
2023-07-03T04:20:52.744Z,100768.25
2023-07-03T04:23:19.767Z,100767.09
2023-07-03T04:25:46.697Z,100763.06
2023-07-03T04:28:14.356Z,100770.88
2023-07-03T04:30:41.108Z,100769.56
2023-07-03T04:33:07.760Z,100775.78
2023-07-03T04:35:35.300Z,100780.97
2023-07-03T04:38:04.552Z,100770.06
2023-07-03T04:40:31.876Z,100771.47
2023-07-03T04:42:58.766Z,100786.72
2023-07-03T04:45:27.232Z,100782.66
2023-07-03T04:47:55.121Z,100792.31
2023-07-03T04:50:26.550Z,100778.69
2023-07-03T04:52:56.781Z,100792.53
2023-07-03T04:55:25.656Z,100783.19
2023-07-03T04:57:52.588Z,100799.63
2023-07-03T05:00:20.655Z,100796.16
2023-07-03T05:02:49.097Z,100802.81
2023-07-03T05:05:21.011Z,100800.28
2023-07-03T05:07:47.946Z,100797.00
2023-07-03T05:10:16.818Z,100799.13
2023-07-03T05:12:46.685Z,100798.06
2023-07-03T05:15:18.511Z,100790.47
2023-07-03T05:17:50.430Z,100800.38
2023-07-03T05:20:27.038Z,100804.44
2023-07-03T05:22:55.076Z,100803.75
2023-07-03T05:25:23.466Z,100809.59
2023-07-03T05:27:50.322Z,100804.66
2023-07-03T05:30:17.375Z,100808.91
2023-07-03T05:32:44.387Z,100813.06
2023-07-03T05:35:17.228Z,100800.06
2023-07-03T05:37:53.217Z,100807.91
2023-07-03T05:40:21.242Z,100811.59
2023-07-03T05:42:48.297Z,100812.38
2023-07-03T05:45:15.929Z,100813.66
2023-07-03T05:47:45.381Z,100810.31
2023-07-03T05:50:12.556Z,100817.78
2023-07-03T05:52:41.803Z,100806.16
2023-07-03T05:55:12.640Z,100823.91
2023-07-03T05:57:39.837Z,100820.19
2023-07-03T06:00:14.208Z,100818.25
2023-07-03T06:02:47.670Z,100829.72
2023-07-03T06:05:17.667Z,100821.19
2023-07-03T06:07:44.855Z,100801.34
2023-07-03T06:10:14.392Z,100829.38
2023-07-03T06:12:42.871Z,100801.41
2023-07-03T06:15:10.883Z,100799.66
2023-07-03T06:17:40.036Z,100820.53
2023-07-03T06:20:08.586Z,100815.94
2023-07-03T06:22:35.474Z,100819.06
2023-07-03T06:25:07.538Z,100815.28
2023-07-03T06:27:39.380Z,100819.03
2023-07-03T06:30:08.502Z,100806.22
2023-07-03T06:32:43.061Z,100816.00
2023-07-03T06:35:10.854Z,100802.00
2023-07-03T06:37:40.568Z,100804.16
2023-07-03T06:40:14.390Z,100815.06
2023-07-03T06:42:53.606Z,100810.75
2023-07-03T06:45:20.867Z,100814.25
2023-07-03T06:47:47.730Z,100817.56
2023-07-03T06:50:14.438Z,100830.78
2023-07-03T06:52:42.703Z,100841.31
2023-07-03T06:55:09.896Z,100841.16
2023-07-03T06:57:54.415Z,100843.41
2023-07-03T07:00:21.120Z,100847.13
2023-07-03T07:02:47.928Z,100841.63
2023-07-03T07:05:14.795Z,100836.28
2023-07-03T07:07:41.470Z,100838.06
2023-07-03T07:10:08.785Z,100838.63
2023-07-03T07:12:35.970Z,100840.06
2023-07-03T07:15:03.260Z,100827.44
2023-07-03T07:17:45.839Z,100846.00
2023-07-03T07:20:17.070Z,100840.25
2023-07-03T07:22:44.268Z,100840.19
2023-07-03T07:25:10.933Z,100856.31
2023-07-03T07:27:44.292Z,100843.72
2023-07-03T07:58:39.945Z,100854.09
2023-07-03T08:33:36.863Z,100891.31
2023-07-03T09:25:44.339Z,100900.00
2023-07-03T09:36:01.130Z,100892.72
2023-07-03T09:41:39.722Z,100883.44
2023-07-03T09:53:48.998Z,100897.28
2023-07-03T09:59:21.588Z,100898.38
2023-07-03T10:13:12.861Z,100889.88
2023-07-03T10:15:42.180Z,100899.47
2023-07-03T10:18:21.446Z,100905.75
2023-07-03T10:20:51.754Z,100915.56
2023-07-03T10:23:26.451Z,100910.53
2023-07-03T10:25:58.576Z,100923.47
2023-07-03T10:28:30.487Z,100932.00
2023-07-03T10:31:00.805Z,100933.34
2023-07-03T10:33:33.754Z,100933.41
2023-07-03T10:36:05.813Z,100935.19
2023-07-03T10:38:56.226Z,100926.31
2023-07-03T10:41:51.838Z,100924.44
2023-07-03T10:44:25.319Z,100914.28
2023-07-03T10:47:18.720Z,100915.78
2023-07-03T10:49:47.671Z,100925.78
2023-07-03T10:52:59.518Z,100908.69
2023-07-03T10:55:40.743Z,100921.88
2023-07-03T10:58:34.700Z,100913.88
2023-07-03T11:01:13.112Z,100909.81
2023-07-03T11:03:47.652Z,100931.34
2023-07-03T11:06:44.732Z,100929.81
2023-07-03T11:09:30.596Z,100924.94
2023-07-03T11:12:06.719Z,100937.59
2023-07-03T11:15:01.223Z,100924.88
2023-07-03T11:23:35.728Z,100919.00
2023-07-03T11:28:41.834Z,100920.69
2023-07-03T11:31:10.972Z,100906.63
2023-07-03T11:36:51.577Z,100914.34
2023-07-03T11:44:48.297Z,100905.53
2023-07-03T11:47:28.668Z,100898.06
2023-07-03T11:50:07.173Z,100901.25
2023-07-03T11:52:40.589Z,100887.78
2023-07-03T11:55:20.163Z,100917.28
2023-07-03T11:58:04.443Z,100910.75
2023-07-03T12:00:36.980Z,100918.50
2023-07-03T12:26:50.163Z,100919.13
2023-07-03T13:05:21.741Z,100932.84
2023-07-03T13:07:51.796Z,100928.59
2023-07-03T13:10:23.440Z,100926.00
2023-07-03T13:13:27.661Z,100919.22
2023-07-03T13:15:55.432Z,100907.44
2023-07-03T13:25:54.954Z,100903.91
2023-07-03T13:28:31.001Z,100888.81
2023-07-03T13:31:17.674Z,100901.09
2023-07-03T13:34:20.432Z,100901.09
2023-07-03T13:37:01.608Z,100885.06
2023-07-03T13:39:36.829Z,100898.66
2023-07-03T13:42:11.765Z,100887.47
2023-07-03T13:50:44.481Z,100876.78
2023-07-03T14:08:34.455Z,100876.00
2023-07-03T14:11:05.045Z,100897.34
2023-07-03T14:13:35.097Z,100879.75
2023-07-03T14:18:43.922Z,100863.44
2023-07-03T14:21:19.896Z,100874.09
2023-07-03T14:23:50.111Z,100851.97
2023-07-03T14:26:20.609Z,100870.34
2023-07-03T14:28:51.461Z,100867.97
2023-07-03T15:06:43.240Z,100871.69
2023-07-03T15:09:30.818Z,100880.19
2023-07-03T15:12:17.026Z,100858.84
2023-07-03T15:14:45.633Z,100857.06
2023-07-03T15:20:30.813Z,100848.69
2023-07-03T15:23:05.157Z,100863.94
2023-07-03T15:25:33.952Z,100843.94
2023-07-03T15:28:01.365Z,100840.50
2023-07-03T15:30:31.892Z,100861.56
2023-07-03T15:32:59.930Z,100847.97
2023-07-03T15:35:29.462Z,100848.50
2023-07-03T15:37:59.268Z,100844.22
2023-07-03T18:09:30.229Z,100754.78
2023-07-03T18:11:58.026Z,100729.63
2023-07-03T18:14:33.919Z,100759.56
2023-07-03T18:17:08.904Z,100763.22
2023-07-03T18:19:39.586Z,100778.88
2023-07-03T18:22:07.117Z,100769.53
2023-07-03T18:24:38.599Z,100772.41
2023-07-03T18:27:08.611Z,100751.41
2023-07-03T18:32:37.416Z,100769.78
2023-07-03T18:35:19.174Z,100776.84
2023-07-03T18:37:46.275Z,100770.22
2023-07-03T18:40:35.620Z,100770.84
2023-07-03T19:29:16.334Z,100782.66
2023-07-03T19:31:44.120Z,100786.28
2023-07-03T19:34:11.010Z,100799.53
2023-07-03T19:36:45.642Z,100791.84
2023-07-03T19:39:14.526Z,100794.00
2023-07-03T19:41:44.176Z,100776.47
2023-07-03T19:44:11.616Z,100792.34
2023-07-03T19:46:42.424Z,100771.94
2023-07-03T19:49:09.631Z,100798.88
2023-07-03T19:51:40.129Z,100791.22
2023-07-03T19:54:07.370Z,100815.03
2023-07-03T19:56:37.076Z,100805.75
2023-07-03T19:59:14.192Z,100799.25
2023-07-03T20:01:42.085Z,100811.28
2023-07-03T20:04:17.720Z,100810.09
2023-07-03T20:06:48.326Z,100812.44
2023-07-03T20:09:21.086Z,100816.28
2023-07-03T20:12:01.947Z,100834.38
2023-07-03T20:14:33.220Z,100835.00
2023-07-03T20:17:01.664Z,100819.84
2023-07-03T20:20:01.881Z,100835.91
2023-07-03T20:22:41.029Z,100832.50
2023-07-03T21:36:49.005Z,100900.44
2023-07-03T21:39:16.028Z,100890.41
2023-07-03T21:41:43.204Z,100892.19
2023-07-03T21:44:17.823Z,100887.28
2023-07-03T21:46:47.742Z,100868.31
2023-07-03T21:49:17.005Z,100880.19
2023-07-03T21:51:44.382Z,100892.69
2023-07-03T21:54:11.512Z,100885.28
2023-07-03T21:56:39.725Z,100876.00
2023-07-03T21:59:06.915Z,100877.63
2023-07-03T22:01:39.467Z,100883.47
2023-07-03T22:04:08.655Z,100880.84
2023-07-03T22:06:36.071Z,100879.25
2023-07-03T22:09:03.183Z,100880.34
2023-07-03T22:11:30.643Z,100876.09
2023-07-03T22:13:57.572Z,100870.66
2023-07-03T22:16:24.863Z,100874.31
2023-07-03T22:18:51.658Z,100869.03
2023-07-03T22:21:21.949Z,100880.97
2023-07-03T22:23:50.576Z,100863.94
2023-07-03T22:26:17.847Z,100860.56
2023-07-03T22:28:46.108Z,100860.50
2023-07-03T22:31:12.834Z,100857.06
2023-07-03T22:33:40.076Z,100863.16
2023-07-03T22:36:10.168Z,100863.09
2023-07-03T22:38:37.266Z,100866.25
2023-07-03T22:41:04.663Z,100858.34
2023-07-03T22:43:31.826Z,100871.47
2023-07-03T22:46:06.293Z,100871.84
2023-07-03T22:48:33.752Z,100865.22
2023-07-03T22:51:02.341Z,100879.09
2023-07-03T22:53:29.782Z,100875.44
2023-07-03T22:56:02.237Z,100877.88
2023-07-03T22:58:34.219Z,100884.16
2023-07-03T23:01:10.273Z,100869.47
2023-07-03T23:03:39.941Z,100890.28
2023-07-03T23:06:07.427Z,100893.03
2023-07-03T23:08:34.427Z,100897.84
2023-07-03T23:11:03.224Z,100901.75
2023-07-03T23:13:31.310Z,100886.34
2023-07-03T23:16:07.450Z,100904.66
2023-07-03T23:18:37.054Z,100903.19
2023-07-03T23:21:08.168Z,100904.66
2023-07-03T23:51:22.198Z,100900.94
2023-07-03T23:53:50.933Z,100908.09
2023-07-03T23:56:20.484Z,100905.56
2023-07-03T23:58:49.876Z,100909.50
